Nelson, Nebraska
Current Conditions -  °F | °C
As of 11:35 PM on Tuesday 21 Oct 2014 (Local Time) from KHJH Reporting Station
Clear Clear  
Wind Chill: 59°   Ceiling: Unl
Heat Index: 59°   Visibility: 10mi
Dew Point: 47°   Wind: 9mph
Humidity: 63%   Direction: 140°SE
Pressure: 30.01"   Gusts: NA
Location:  40.2°N, 98.07°W
Report Text: KHJH 220435Z AUTO 14008KT 10SM CLR 15/08 A3001 RMK AO2 T01520083
Loading
Personal Weather Stations






























Interactive Weather Map
Tropical Storm Tracking
New forecast layout! Learn more

10-Day Weather Forecast

Advertisements
Track Severe Weather on mobile